Time;durP1;ratioP1;P1;durP2;ratioP2;P2;SDS_P1;SDS_P2;PMS_P1;PMS_P2;Temp;Humidity;BMP_temperature;BMP_pressure;BME280_temperature;BME280_humidity;BME280_pressure;Samples;Min_cycle;Max_cycle;Signal;HPM_P1;HPM_P2
2022/06/13 00:00:07;;;;;;;;;;;22.90;56.90;;;;;;4917772;29;20348;-71
2022/06/13 00:02:33;;;;;;;;;;;22.80;56.80;;;;;;4917627;29;19940;-72
2022/06/13 00:04:59;;;;;;;;;;;22.90;56.70;;;;;;4917982;29;19911;-71
2022/06/13 00:07:25;;;;;;;;;;;22.90;56.80;;;;;;4918054;29;20249;-69
2022/06/13 00:09:50;;;;;;;;;;;22.80;56.90;;;;;;4917847;29;20029;-69
2022/06/13 00:12:16;;;;;;;;;;;22.60;57.70;;;;;;4917666;29;20013;-69
2022/06/13 00:14:41;;;;;;;;;;;22.50;58.20;;;;;;4917699;29;19919;-71
2022/06/13 00:17:07;;;;;;;;;;;22.40;58.30;;;;;;4917829;29;19911;-70
2022/06/13 00:19:32;;;;;;;;;;;22.30;58.60;;;;;;4917668;29;20284;-70
2022/06/13 00:21:58;;;;;;;;;;;22.40;58.40;;;;;;4917515;29;19958;-70
2022/06/13 00:24:23;;;;;;;;;;;22.50;58.10;;;;;;4917524;29;20302;-70
2022/06/13 00:26:49;;;;;;;;;;;22.30;58.80;;;;;;4917481;29;20216;-71
2022/06/13 00:29:15;;;;;;;;;;;22.30;58.90;;;;;;4917820;29;20307;-71
2022/06/13 00:31:41;;;;;;;;;;;22.30;59.60;;;;;;4916971;29;19941;-72
2022/06/13 00:34:06;;;;;;;;;;;22.30;59.70;;;;;;4917224;29;19911;-72
2022/06/13 00:36:32;;;;;;;;;;;22.30;59.80;;;;;;4917430;29;19912;-69
2022/06/13 00:38:57;;;;;;;;;;;22.20;60.20;;;;;;4917356;29;19975;-69
2022/06/13 00:41:25;;;;;;;;;;;22.20;60.30;;;;;;4917293;29;19912;-68
2022/06/13 00:43:51;;;;;;;;;;;22.20;60.60;;;;;;4917513;29;20510;-69
2022/06/13 00:46:17;;;;;;;;;;;22.20;60.60;;;;;;4917408;29;19950;-69
2022/06/13 00:48:43;;;;;;;;;;;22.30;59.50;;;;;;4917547;29;19911;-64
2022/06/13 00:51:09;;;;;;;;;;;22.30;59.20;;;;;;4917577;29;19919;-62
2022/06/13 00:53:35;;;;;;;;;;;22.30;59.00;;;;;;4917176;29;20284;-61
2022/06/13 00:56:03;;;;;;;;;;;22.40;58.90;;;;;;4917008;29;20006;-62
2022/06/13 00:58:30;;;;;;;;;;;22.40;58.90;;;;;;4917328;29;20252;-62
2022/06/13 01:00:57;;;;;;;;;;;22.30;59.00;;;;;;4917404;29;20009;-62
2022/06/13 01:03:25;;;;;;;;;;;22.20;59.40;;;;;;4917284;29;20319;-62
2022/06/13 01:05:51;;;;;;;;;;;22.00;59.80;;;;;;4917353;29;19915;-62
2022/06/13 01:08:17;;;;;;;;;;;22.00;59.30;;;;;;4917018;29;20287;-63
2022/06/13 01:13:48;;;;;;;;;;;22.00;59.80;;;;;;4917042;29;20042;-61
2022/06/13 01:16:33;;;;;;;;;;;21.90;59.90;;;;;;4917065;29;19912;-62
2022/06/13 01:19:08;;;;;;;;;;;21.90;59.70;;;;;;4916468;29;19950;-61
2022/06/13 01:21:37;;;;;;;;;;;22.10;59.10;;;;;;4916774;29;20383;-63
2022/06/13 01:24:35;;;;;;;;;;;22.20;58.90;;;;;;4917022;29;19915;-64
2022/06/13 01:27:00;;;;;;;;;;;22.30;58.50;;;;;;4885308;29;19938;-63
2022/06/13 01:29:39;;;;;;;;;;;22.20;58.30;;;;;;4916483;29;19911;-63
2022/06/13 01:32:05;;;;;;;;;;;22.20;58.60;;;;;;4916821;29;19919;-62
2022/06/13 01:34:49;;;;;;;;;;;22.20;58.80;;;;;;4916713;29;19911;-69
2022/06/13 01:37:15;;;;;;;;;;;22.30;58.40;;;;;;4916508;29;19917;-71
2022/06/13 01:39:46;;;;;;;;;;;22.40;58.00;;;;;;4916299;29;19911;-69
2022/06/13 01:42:18;;;;;;;;;;;22.50;57.30;;;;;;4916447;29;19915;-71
2022/06/13 01:44:47;;;;;;;;;;;22.50;57.50;;;;;;4920229;29;19919;-71
2022/06/13 01:47:17;;;;;;;;;;;22.30;57.90;;;;;;4920041;29;19912;-68
2022/06/13 01:49:46;;;;;;;;;;;22.10;58.60;;;;;;4920001;29;19912;-68
2022/06/13 01:52:30;;;;;;;;;;;22.00;58.30;;;;;;4920099;29;19919;-68
2022/06/13 01:55:01;;;;;;;;;;;21.80;59.10;;;;;;4920210;29;19983;-69
2022/06/13 01:57:38;;;;;;;;;;;21.80;58.50;;;;;;4919785;29;19911;-69
2022/06/13 02:00:07;;;;;;;;;;;21.90;58.70;;;;;;4919827;29;19915;-67
2022/06/13 02:02:35;;;;;;;;;;;21.90;59.20;;;;;;4919708;29;20017;-69
2022/06/13 02:05:08;;;;;;;;;;;21.90;58.90;;;;;;4919701;29;20017;-70
2022/06/13 02:07:36;;;;;;;;;;;21.70;60.10;;;;;;4919590;29;19911;-64
2022/06/13 02:10:09;;;;;;;;;;;21.80;59.70;;;;;;4919606;29;19917;-66
2022/06/13 02:12:35;;;;;;;;;;;21.80;59.70;;;;;;4919390;29;19919;-69
2022/06/13 02:15:10;;;;;;;;;;;22.00;59.00;;;;;;4919472;29;20383;-69
2022/06/13 02:17:38;;;;;;;;;;;22.00;58.90;;;;;;4919651;29;19915;-70
2022/06/13 02:20:12;;;;;;;;;;;22.00;59.30;;;;;;4920034;29;19966;-71
2022/06/13 02:22:41;;;;;;;;;;;21.80;59.60;;;;;;4919742;29;19919;-70
2022/06/13 02:25:18;;;;;;;;;;;21.80;59.70;;;;;;4919987;29;19951;-68
2022/06/13 02:27:45;;;;;;;;;;;22.00;59.30;;;;;;4919665;29;19918;-70
2022/06/13 02:30:14;;;;;;;;;;;22.00;59.00;;;;;;4919821;29;19918;-71
2022/06/13 02:33:02;;;;;;;;;;;22.00;59.20;;;;;;4919847;29;20343;-69
2022/06/13 02:35:38;;;;;;;;;;;21.80;59.00;;;;;;4911868;29;20391;-68
2022/06/13 02:38:10;;;;;;;;;;;22.00;58.60;;;;;;4919654;29;19911;-70
2022/06/13 02:40:38;;;;;;;;;;;21.90;59.00;;;;;;4919613;29;19911;-73
2022/06/13 02:43:12;;;;;;;;;;;21.80;58.90;;;;;;4919488;29;20381;-67
2022/06/13 02:45:46;;;;;;;;;;;21.80;59.70;;;;;;4919494;29;19934;-68
2022/06/13 02:48:17;;;;;;;;;;;21.80;59.70;;;;;;4919353;29;19911;-69
2022/06/13 02:50:43;;;;;;;;;;;22.00;59.40;;;;;;4919136;29;19911;-62
2022/06/13 02:53:12;;;;;;;;;;;22.10;58.20;;;;;;4919327;29;19919;-71
2022/06/13 02:55:42;;;;;;;;;;;22.10;58.10;;;;;;4919246;29;19918;-71
2022/06/13 02:58:07;;;;;;;;;;;22.20;57.60;;;;;;4919121;29;19918;-68
2022/06/13 03:00:33;;;;;;;;;;;22.20;57.10;;;;;;4919157;29;19911;-69
2022/06/13 03:03:09;;;;;;;;;;;22.20;57.20;;;;;;4919260;29;19954;-68
2022/06/13 03:05:41;;;;;;;;;;;22.10;57.70;;;;;;4919279;29;19911;-70
2022/06/13 03:08:06;;;;;;;;;;;21.90;58.10;;;;;;4919176;29;19911;-71
2022/06/13 03:10:40;;;;;;;;;;;21.90;58.40;;;;;;4918962;29;20377;-71
2022/06/13 03:13:08;;;;;;;;;;;21.70;59.70;;;;;;4919028;29;19919;-70
2022/06/13 03:15:44;;;;;;;;;;;21.70;59.70;;;;;;4918968;29;19911;-70
2022/06/13 03:18:19;;;;;;;;;;;21.70;59.40;;;;;;4918739;29;19950;-69
2022/06/13 03:20:44;;;;;;;;;;;21.50;59.80;;;;;;4918884;29;20448;-71
2022/06/13 03:23:13;;;;;;;;;;;21.70;58.50;;;;;;4918758;29;19919;-71
2022/06/13 03:25:50;;;;;;;;;;;21.90;58.40;;;;;;4918705;29;19997;-68
2022/06/13 03:28:20;;;;;;;;;;;21.90;58.50;;;;;;4918636;29;19912;-72
2022/06/13 03:30:49;;;;;;;;;;;21.90;58.10;;;;;;4918445;29;20364;-69
2022/06/13 03:36:04;;;;;;;;;;;22.10;57.30;;;;;;4918375;29;19922;-71
2022/06/13 03:38:32;;;;;;;;;;;22.00;57.30;;;;;;4918373;29;19959;-70
2022/06/13 03:41:00;;;;;;;;;;;22.00;57.40;;;;;;4918573;29;19918;-71
2022/06/13 03:43:33;;;;;;;;;;;22.00;57.30;;;;;;4917085;29;19958;-71
2022/06/13 03:46:06;;;;;;;;;;;22.10;56.90;;;;;;4918273;29;20360;-70
2022/06/13 03:48:48;;;;;;;;;;;22.10;57.20;;;;;;4918433;29;20291;-71
2022/06/13 03:51:16;;;;;;;;;;;22.30;56.60;;;;;;4918333;29;19915;-71
2022/06/13 03:53:51;;;;;;;;;;;22.10;57.70;;;;;;4918011;29;19919;-70
2022/06/13 03:56:23;;;;;;;;;;;22.10;57.70;;;;;;4918245;29;19911;-71
2022/06/13 03:58:48;;;;;;;;;;;21.90;59.00;;;;;;4918264;29;20344;-71
2022/06/13 04:01:19;;;;;;;;;;;21.80;58.70;;;;;;4917947;29;19919;-70
2022/06/13 04:03:45;;;;;;;;;;;21.60;59.90;;;;;;4918055;29;19982;-68
2022/06/13 04:06:29;;;;;;;;;;;21.60;59.50;;;;;;4917442;29;20284;-71
2022/06/13 04:08:55;;;;;;;;;;;21.60;59.50;;;;;;4917661;29;20006;-71
2022/06/13 04:11:30;;;;;;;;;;;21.80;59.10;;;;;;4917970;29;19911;-70
2022/06/13 04:14:08;;;;;;;;;;;21.90;58.50;;;;;;4917886;29;19926;-70
2022/06/13 04:16:36;;;;;;;;;;;22.00;57.80;;;;;;4918015;29;19935;-71
2022/06/13 04:19:08;;;;;;;;;;;22.10;57.60;;;;;;4917963;29;19911;-72
2022/06/13 04:21:46;;;;;;;;;;;22.10;57.90;;;;;;4917796;29;19923;-69
2022/06/13 04:24:14;;;;;;;;;;;22.10;57.80;;;;;;4917963;29;19911;-70
2022/06/13 04:26:58;;;;;;;;;;;22.30;56.80;;;;;;4917652;29;19915;-71
2022/06/13 04:29:34;;;;;;;;;;;22.30;56.80;;;;;;4917412;29;20351;-70
2022/06/13 04:32:03;;;;;;;;;;;22.10;57.20;;;;;;4917823;29;19962;-71
2022/06/13 04:34:30;;;;;;;;;;;22.10;58.30;;;;;;4918430;29;20372;-73
2022/06/13 04:36:56;;;;;;;;;;;22.00;59.60;;;;;;4924173;29;20299;-69
2022/06/13 04:39:26;;;;;;;;;;;22.00;59.70;;;;;;4923628;29;19918;-70
2022/06/13 04:41:53;;;;;;;;;;;22.00;59.20;;;;;;4923708;29;20415;-71
2022/06/13 04:44:20;;;;;;;;;;;22.20;58.00;;;;;;4918482;29;19925;-68
2022/06/13 04:46:47;;;;;;;;;;;22.30;57.50;;;;;;4917560;29;19911;-69
2022/06/13 04:49:31;;;;;;;;;;;22.30;56.90;;;;;;4917341;29;19911;-69
2022/06/13 04:51:59;;;;;;;;;;;22.30;56.70;;;;;;4917365;29;19926;-71
2022/06/13 04:54:25;;;;;;;;;;;22.40;56.70;;;;;;4917351;29;19915;-69
2022/06/13 04:56:50;;;;;;;;;;;22.30;57.40;;;;;;4917229;29;19966;-70
2022/06/13 04:59:16;;;;;;;;;;;22.30;57.60;;;;;;4917152;29;19911;-67
2022/06/13 05:01:46;;;;;;;;;;;22.40;57.80;;;;;;4917353;29;19911;-66
2022/06/13 05:04:14;;;;;;;;;;;22.40;58.00;;;;;;4917402;29;20018;-70
2022/06/13 05:06:39;;;;;;;;;;;22.40;58.10;;;;;;4917630;29;19983;-71
2022/06/13 05:09:10;;;;;;;;;;;22.30;58.70;;;;;;4917235;29;20363;-70
2022/06/13 05:11:44;;;;;;;;;;;22.20;58.10;;;;;;4917359;29;19950;-70
2022/06/13 05:14:12;;;;;;;;;;;22.40;57.90;;;;;;4917152;29;19983;-69
2022/06/13 05:16:56;;;;;;;;;;;22.50;59.00;;;;;;4917625;29;19922;-69
2022/06/13 05:19:31;;;;;;;;;;;22.50;59.50;;;;;;4921202;29;19919;-71
2022/06/13 05:22:03;;;;;;;;;;;22.70;58.20;;;;;;4920942;29;19923;-72
2022/06/13 05:24:31;;;;;;;;;;;23.00;57.80;;;;;;4921473;29;19934;-69
2022/06/13 05:26:57;;;;;;;;;;;23.10;57.60;;;;;;4920959;29;19912;-71
2022/06/13 05:29:25;;;;;;;;;;;23.30;57.50;;;;;;4921055;29;19911;-69
2022/06/13 05:31:51;;;;;;;;;;;23.40;57.90;;;;;;4921077;29;19919;-71
2022/06/13 05:34:20;;;;;;;;;;;23.50;59.00;;;;;;4923781;29;19922;-74
2022/06/13 05:36:46;;;;;;;;;;;23.70;57.80;;;;;;4920794;29;20347;-69
2022/06/13 05:39:12;;;;;;;;;;;24.30;56.90;;;;;;4920747;29;19912;-70
2022/06/13 05:41:38;;;;;;;;;;;24.80;56.00;;;;;;4920107;29;19958;-69
2022/06/13 05:44:05;;;;;;;;;;;25.30;54.70;;;;;;4920442;29;20029;-70
2022/06/13 05:46:32;;;;;;;;;;;25.80;53.60;;;;;;4920735;29;20296;-72
2022/06/13 05:48:58;;;;;;;;;;;26.10;52.60;;;;;;4920513;29;19951;-71
2022/06/13 05:51:23;;;;;;;;;;;26.50;52.50;;;;;;4920316;29;19936;-72
2022/06/13 05:53:49;;;;;;;;;;;26.70;51.60;;;;;;4920139;29;19943;-67
2022/06/13 05:56:14;;;;;;;;;;;27.00;51.10;;;;;;4920235;29;19942;-62
2022/06/13 05:58:40;;;;;;;;;;;27.20;51.90;;;;;;4920191;29;19916;-68
2022/06/13 06:01:06;;;;;;;;;;;27.40;50.30;;;;;;4920352;29;19917;-60
2022/06/13 06:03:32;;;;;;;;;;;27.50;49.40;;;;;;4920259;29;20359;-73
2022/06/13 06:05:58;;;;;;;;;;;27.70;48.50;;;;;;4920373;29;19915;-63
2022/06/13 06:08:35;;;;;;;;;;;27.80;48.40;;;;;;4920221;29;19930;-72
2022/06/13 06:11:00;;;;;;;;;;;28.00;48.80;;;;;;4919196;29;20009;-69
2022/06/13 06:13:27;;;;;;;;;;;28.20;47.90;;;;;;4920065;29;20010;-71
2022/06/13 06:15:53;;;;;;;;;;;28.30;47.30;;;;;;4920070;29;19912;-70
2022/06/13 06:18:19;;;;;;;;;;;28.40;46.30;;;;;;4919705;29;20332;-63
2022/06/13 06:20:45;;;;;;;;;;;28.50;46.00;;;;;;4919771;29;19927;-59
2022/06/13 06:23:12;;;;;;;;;;;28.70;46.40;;;;;;4920021;29;19912;-68
2022/06/13 06:25:38;;;;;;;;;;;28.80;44.70;;;;;;4920024;29;19990;-71
2022/06/13 06:28:04;;;;;;;;;;;29.00;43.80;;;;;;4919300;29;19964;-70
2022/06/13 06:30:30;;;;;;;;;;;29.00;42.40;;;;;;4919304;29;19927;-63
2022/06/13 06:32:56;;;;;;;;;;;29.20;42.00;;;;;;4919704;29;19967;-73
2022/06/13 06:35:23;;;;;;;;;;;29.30;41.80;;;;;;4919567;29;20291;-71
2022/06/13 06:37:49;;;;;;;;;;;29.20;42.20;;;;;;4919572;29;19919;-68
2022/06/13 06:40:16;;;;;;;;;;;29.10;42.40;;;;;;4919708;29;20379;-63
2022/06/13 06:42:42;;;;;;;;;;;28.80;43.30;;;;;;4919688;29;19911;-65
2022/06/13 06:45:08;;;;;;;;;;;28.50;43.30;;;;;;4920283;29;20293;-65
2022/06/13 06:47:33;;;;;;;;;;;28.10;43.80;;;;;;4922254;29;19917;-60
2022/06/13 06:49:59;;;;;;;;;;;27.70;44.40;;;;;;4919669;29;19922;-61
2022/06/13 06:52:25;;;;;;;;;;;27.40;45.00;;;;;;4919158;29;20364;-64
2022/06/13 07:00:19;;;;;;;;;;;26.90;46.80;;;;;;4919354;29;20456;-58
2022/06/13 07:02:45;;;;;;;;;;;26.90;48.50;;;;;;4919228;29;19911;-59
2022/06/13 07:05:11;;;;;;;;;;;27.00;48.60;;;;;;4919477;29;19915;-60
2022/06/13 07:07:37;;;;;;;;;;;27.20;48.20;;;;;;4919183;29;20431;-59
2022/06/13 07:10:03;;;;;;;;;;;27.50;47.10;;;;;;4919026;29;19911;-59
2022/06/13 07:12:28;;;;;;;;;;;27.70;46.00;;;;;;4918903;29;20303;-58
2022/06/13 07:14:54;;;;;;;;;;;27.90;45.90;;;;;;4919080;29;20050;-60
2022/06/13 07:17:20;;;;;;;;;;;28.00;45.80;;;;;;4919084;29;19942;-60
2022/06/13 07:19:46;;;;;;;;;;;28.10;45.30;;;;;;4919100;29;20417;-56
2022/06/13 07:22:13;;;;;;;;;;;28.20;45.10;;;;;;4918613;29;20010;-60
2022/06/13 07:24:39;;;;;;;;;;;28.30;44.90;;;;;;4918946;29;20278;-58
2022/06/13 07:27:04;;;;;;;;;;;28.40;45.50;;;;;;4919286;29;19912;-60
2022/06/13 07:29:30;;;;;;;;;;;28.50;44.00;;;;;;4918575;29;19915;-59
2022/06/13 07:32:00;;;;;;;;;;;28.60;44.20;;;;;;4918397;29;19915;-60
2022/06/13 07:34:27;;;;;;;;;;;28.70;44.00;;;;;;4918648;29;19944;-57
2022/06/13 07:36:54;;;;;;;;;;;28.70;43.20;;;;;;4918775;29;19950;-58
2022/06/13 07:39:20;;;;;;;;;;;28.70;43.00;;;;;;4918363;29;19912;-60
2022/06/13 07:41:46;;;;;;;;;;;28.90;42.90;;;;;;4918315;29;19922;-59
2022/06/13 07:44:23;;;;;;;;;;;28.90;42.70;;;;;;4918620;29;19919;-57
2022/06/13 07:46:50;;;;;;;;;;;28.80;42.20;;;;;;4918731;29;19920;-57
2022/06/13 07:49:16;;;;;;;;;;;28.70;43.30;;;;;;4918258;29;19955;-60
2022/06/13 07:51:42;;;;;;;;;;;28.50;43.70;;;;;;4918551;29;19916;-59
2022/06/13 07:54:07;;;;;;;;;;;28.30;44.60;;;;;;4918302;29;19912;-59
2022/06/13 07:56:34;;;;;;;;;;;28.20;45.30;;;;;;4918363;29;19915;-59
2022/06/13 07:59:00;;;;;;;;;;;28.00;45.50;;;;;;4918260;29;19911;-58
2022/06/13 08:01:26;;;;;;;;;;;27.80;46.10;;;;;;4918411;29;19918;-59
2022/06/13 08:03:52;;;;;;;;;;;27.70;46.30;;;;;;4918177;29;19980;-59
2022/06/13 08:06:18;;;;;;;;;;;27.70;46.20;;;;;;4917993;29;19962;-60
2022/06/13 08:08:45;;;;;;;;;;;27.60;45.50;;;;;;4918093;29;19954;-59
2022/06/13 08:11:13;;;;;;;;;;;27.40;45.90;;;;;;4918001;29;20006;-58
2022/06/13 08:13:39;;;;;;;;;;;27.30;46.00;;;;;;4917974;29;19986;-59
2022/06/13 08:16:08;;;;;;;;;;;27.30;46.20;;;;;;4917069;29;20084;-60
2022/06/13 08:18:33;;;;;;;;;;;27.10;46.40;;;;;;4917893;29;20011;-61
2022/06/13 08:20:59;;;;;;;;;;;27.10;46.70;;;;;;4918088;29;19958;-60
2022/06/13 08:23:25;;;;;;;;;;;27.00;46.60;;;;;;4918005;29;19915;-61
2022/06/13 08:25:51;;;;;;;;;;;27.00;46.90;;;;;;4917877;29;20354;-59
2022/06/13 08:28:16;;;;;;;;;;;27.00;47.10;;;;;;4917637;29;20269;-58
2022/06/13 08:30:47;;;;;;;;;;;26.90;47.00;;;;;;4918064;29;20009;-57
2022/06/13 08:33:13;;;;;;;;;;;26.80;46.90;;;;;;4917654;29;19966;-57
2022/06/13 08:35:39;;;;;;;;;;;26.70;46.90;;;;;;4917862;29;20319;-56
2022/06/13 08:38:05;;;;;;;;;;;26.70;48.10;;;;;;4917576;29;20283;-58
2022/06/13 08:40:50;;;;;;;;;;;26.60;48.80;;;;;;4917498;29;20007;-58
2022/06/13 08:43:29;;;;;;;;;;;26.60;48.90;;;;;;4917503;29;19918;-59
2022/06/13 08:46:15;;;;;;;;;;;26.50;49.30;;;;;;4917633;29;20427;-59
2022/06/13 08:48:44;;;;;;;;;;;26.50;49.70;;;;;;4916986;29;19915;-58
2022/06/13 08:51:11;;;;;;;;;;;26.40;49.50;;;;;;4917358;29;19958;-57
2022/06/13 08:53:47;;;;;;;;;;;26.30;49.60;;;;;;4917506;29;19923;-59
2022/06/13 08:56:14;;;;;;;;;;;26.30;49.60;;;;;;4918964;29;19917;-58
2022/06/13 08:58:54;;;;;;;;;;;26.30;49.10;;;;;;4918454;29;20322;-57
2022/06/13 09:01:23;;;;;;;;;;;26.30;50.00;;;;;;4917986;29;20332;-57
2022/06/13 09:03:48;;;;;;;;;;;26.40;50.10;;;;;;4917505;29;20282;-58
2022/06/13 09:06:29;;;;;;;;;;;26.40;50.60;;;;;;4917341;29;19915;-58
2022/06/13 09:09:13;;;;;;;;;;;26.40;51.70;;;;;;4917221;29;19918;-59
2022/06/13 09:11:51;;;;;;;;;;;26.40;52.20;;;;;;4917702;29;20006;-58
2022/06/13 09:14:27;;;;;;;;;;;26.50;52.60;;;;;;4917466;29;20356;-59
2022/06/13 09:16:57;;;;;;;;;;;26.50;52.90;;;;;;4917549;29;19911;-56
2022/06/13 09:22:01;;;;;;;;;;;26.60;52.30;;;;;;4897535;29;19928;-69
2022/06/13 09:24:37;;;;;;;;;;;26.60;52.20;;;;;;4898310;29;19927;-69
2022/06/13 09:27:05;;;;;;;;;;;26.60;51.20;;;;;;4898489;29;19968;-68
2022/06/13 09:29:37;;;;;;;;;;;26.60;51.20;;;;;;4898348;29;20367;-68
2022/06/13 09:32:08;;;;;;;;;;;26.60;51.20;;;;;;4898354;29;19915;-67
2022/06/13 09:34:44;;;;;;;;;;;26.70;50.90;;;;;;4898491;29;20010;-68
2022/06/13 09:37:14;;;;;;;;;;;26.70;51.00;;;;;;4897980;29;19937;-69
2022/06/13 09:39:40;;;;;;;;;;;26.70;51.50;;;;;;4898124;29;20042;-70
2022/06/13 09:42:08;;;;;;;;;;;26.60;51.30;;;;;;4898339;29;19912;-65
2022/06/13 09:44:37;;;;;;;;;;;26.70;51.40;;;;;;4898269;29;20065;-70
2022/06/13 09:47:14;;;;;;;;;;;26.80;50.80;;;;;;4898240;29;19916;-59
2022/06/13 09:49:50;;;;;;;;;;;26.90;50.70;;;;;;4898091;29;20287;-64
2022/06/13 09:52:22;;;;;;;;;;;27.00;49.80;;;;;;4898388;29;19915;-63
2022/06/13 09:54:47;;;;;;;;;;;27.00;50.00;;;;;;4898057;29;20014;-64
2022/06/13 09:57:17;;;;;;;;;;;27.10;50.10;;;;;;4898251;29;20022;-66
2022/06/13 09:59:48;;;;;;;;;;;27.20;50.20;;;;;;4897996;29;19912;-62
2022/06/13 10:02:32;;;;;;;;;;;27.30;50.00;;;;;;4898469;29;19934;-66
2022/06/13 10:05:03;;;;;;;;;;;27.30;50.20;;;;;;4900479;29;19919;-66
2022/06/13 10:07:34;;;;;;;;;;;27.40;49.40;;;;;;4901676;29;19918;-65
2022/06/13 10:10:02;;;;;;;;;;;27.40;49.60;;;;;;4901440;29;20375;-64
2022/06/13 10:12:46;;;;;;;;;;;27.40;50.00;;;;;;4901445;29;19920;-63
2022/06/13 10:15:11;;;;;;;;;;;27.50;48.50;;;;;;4901699;29;19998;-60
2022/06/13 10:17:37;;;;;;;;;;;27.60;46.70;;;;;;4901742;29;20347;-63
2022/06/13 10:20:21;;;;;;;;;;;27.70;47.00;;;;;;4901560;29;20292;-64
2022/06/13 10:23:03;;;;;;;;;;;27.70;47.30;;;;;;4901227;29;20372;-60
2022/06/13 10:25:29;;;;;;;;;;;27.70;47.80;;;;;;4901182;29;20002;-67
2022/06/13 10:28:05;;;;;;;;;;;27.70;46.90;;;;;;4901156;29;19970;-66
2022/06/13 10:30:49;;;;;;;;;;;27.60;45.60;;;;;;4900786;29;19915;-60
2022/06/13 10:33:26;;;;;;;;;;;27.60;44.80;;;;;;4900831;29;20006;-67
2022/06/13 10:36:00;;;;;;;;;;;27.50;45.10;;;;;;4901192;29;19911;-66
2022/06/13 10:38:32;;;;;;;;;;;27.50;45.70;;;;;;4901041;29;19972;-67
2022/06/13 10:40:58;;;;;;;;;;;27.50;43.60;;;;;;4900874;29;19918;-71
2022/06/13 10:43:24;;;;;;;;;;;27.50;44.70;;;;;;4900986;29;20368;-63
2022/06/13 10:45:49;;;;;;;;;;;27.50;44.80;;;;;;4900965;29;19912;-59
2022/06/13 10:48:27;;;;;;;;;;;27.50;45.70;;;;;;4900610;29;19912;-60
2022/06/13 10:50:59;;;;;;;;;;;27.50;45.70;;;;;;4900832;29;19911;-70
2022/06/13 10:53:33;;;;;;;;;;;27.60;45.60;;;;;;4900782;29;19967;-68
2022/06/13 10:55:59;;;;;;;;;;;27.60;45.70;;;;;;4900477;29;19912;-69
2022/06/13 10:58:38;;;;;;;;;;;27.60;45.20;;;;;;4900675;29;19939;-68
2022/06/13 11:01:05;;;;;;;;;;;27.60;45.30;;;;;;4900610;29;19915;-61
2022/06/13 11:03:31;;;;;;;;;;;27.60;45.20;;;;;;4900666;29;19947;-69
2022/06/13 11:05:56;;;;;;;;;;;27.60;45.60;;;;;;4900697;29;19912;-66
2022/06/13 11:08:22;;;;;;;;;;;27.60;44.80;;;;;;4896021;29;19911;-64
2022/06/13 11:11:14;;;;;;;;;;;27.70;44.20;;;;;;4899734;29;19911;-68
2022/06/13 11:13:40;;;;;;;;;;;27.70;45.00;;;;;;4903041;29;19959;-62
2022/06/13 11:24:38;;;;;;;;;;;27.70;46.10;;;;;;4901996;29;20015;-64
2022/06/13 11:30:08;;;;;;;;;;;27.60;45.40;;;;;;4899760;29;19918;-65
2022/06/13 11:32:34;;;;;;;;;;;27.70;45.10;;;;;;4899108;29;19924;-64
2022/06/13 11:34:59;;;;;;;;;;;27.70;45.20;;;;;;4899327;29;19918;-65
2022/06/13 11:37:25;;;;;;;;;;;27.70;43.70;;;;;;4899158;29;19958;-68
2022/06/13 11:39:53;;;;;;;;;;;27.70;43.80;;;;;;4899318;29;19911;-69
2022/06/13 11:42:22;;;;;;;;;;;27.70;43.70;;;;;;4899284;29;19912;-65
2022/06/13 11:44:59;;;;;;;;;;;27.70;43.90;;;;;;4899173;29;20379;-64
2022/06/13 11:47:24;;;;;;;;;;;27.70;44.30;;;;;;4899188;29;19915;-64
2022/06/13 11:49:55;;;;;;;;;;;27.60;43.70;;;;;;4899045;29;19912;-64
2022/06/13 11:55:15;;;;;;;;;;;27.70;43.40;;;;;;4899165;29;19917;-63
2022/06/13 11:57:41;;;;;;;;;;;27.60;43.20;;;;;;4896095;29;20006;-66
2022/06/13 12:00:08;;;;;;;;;;;27.60;43.50;;;;;;4880245;29;19923;-64
2022/06/13 12:02:43;;;;;;;;;;;27.70;43.10;;;;;;4880112;29;19981;-63
2022/06/13 12:05:12;;;;;;;;;;;27.70;42.60;;;;;;4880553;29;19912;-67
2022/06/13 12:07:37;;;;;;;;;;;27.70;40.90;;;;;;4880531;29;19912;-66
2022/06/13 12:10:13;;;;;;;;;;;27.70;40.90;;;;;;4898732;29;19919;-64
2022/06/13 12:12:43;;;;;;;;;;;27.70;42.30;;;;;;4893215;29;19920;-65
2022/06/13 12:15:09;;;;;;;;;;;27.70;41.70;;;;;;4896169;29;19979;-62
2022/06/13 12:17:38;;;;;;;;;;;27.80;40.40;;;;;;4911922;29;19925;-63
2022/06/13 12:20:08;;;;;;;;;;;27.80;39.90;;;;;;4911221;29;19923;-64
2022/06/13 12:22:52;;;;;;;;;;;27.80;40.50;;;;;;4910369;29;19915;-63
2022/06/13 12:25:23;;;;;;;;;;;27.80;40.30;;;;;;4898707;29;19959;-64
2022/06/13 12:27:50;;;;;;;;;;;27.80;40.90;;;;;;4897735;29;19912;-64
2022/06/13 12:30:34;;;;;;;;;;;27.90;41.70;;;;;;4898391;29;19993;-65
2022/06/13 12:33:06;;;;;;;;;;;27.90;40.60;;;;;;4898558;29;19920;-64
2022/06/13 12:35:40;;;;;;;;;;;27.90;38.90;;;;;;4898465;29;19947;-64
2022/06/13 12:38:15;;;;;;;;;;;27.90;38.30;;;;;;4898201;29;20233;-67
2022/06/13 12:40:56;;;;;;;;;;;27.90;38.10;;;;;;4898182;29;19919;-66
2022/06/13 12:43:24;;;;;;;;;;;27.90;38.70;;;;;;4898260;29;19918;-62
2022/06/13 12:45:56;;;;;;;;;;;27.90;37.90;;;;;;4898101;29;19912;-64
2022/06/13 12:48:27;;;;;;;;;;;27.90;38.50;;;;;;4898178;29;19915;-65
2022/06/13 12:51:02;;;;;;;;;;;27.90;39.90;;;;;;4898001;29;19935;-65
2022/06/13 12:53:30;;;;;;;;;;;27.90;39.60;;;;;;4898342;29;20026;-64
2022/06/13 12:55:59;;;;;;;;;;;27.90;39.60;;;;;;4898049;29;19947;-67
2022/06/13 12:58:24;;;;;;;;;;;27.90;40.10;;;;;;4898082;29;19971;-67
2022/06/13 13:00:57;;;;;;;;;;;27.90;41.50;;;;;;4897969;29;19916;-66
2022/06/13 13:03:32;;;;;;;;;;;27.90;40.60;;;;;;4898290;29;19961;-65
2022/06/13 13:06:08;;;;;;;;;;;27.90;41.20;;;;;;4897824;29;19912;-63
2022/06/13 13:09:06;;;;;;;;;;;27.90;41.90;;;;;;4897906;29;19916;-63
2022/06/13 13:11:41;;;;;;;;;;;27.90;41.40;;;;;;4876481;29;19911;-72
2022/06/13 13:14:11;;;;;;;;;;;27.90;40.20;;;;;;4897969;29;19919;-63
2022/06/13 13:16:37;;;;;;;;;;;27.90;39.40;;;;;;4897824;29;19918;-64
2022/06/13 13:19:23;;;;;;;;;;;27.90;39.20;;;;;;4898116;29;20084;-71
2022/06/13 13:21:57;;;;;;;;;;;27.90;38.80;;;;;;4897856;29;19930;-68
2022/06/13 13:24:25;;;;;;;;;;;27.90;38.50;;;;;;4897778;29;19967;-68
2022/06/13 13:27:05;;;;;;;;;;;27.90;39.60;;;;;;4896025;29;19922;-66
2022/06/13 13:29:49;;;;;;;;;;;27.90;39.10;;;;;;4896293;29;19934;-69
2022/06/13 13:32:29;;;;;;;;;;;28.00;38.10;;;;;;4895717;29;19926;-72
2022/06/13 13:34:58;;;;;;;;;;;28.00;39.20;;;;;;4897201;29;20010;-65
2022/06/13 13:37:38;;;;;;;;;;;28.00;38.80;;;;;;4897284;29;19915;-65
2022/06/13 13:40:32;;;;;;;;;;;28.00;38.50;;;;;;4901351;29;19923;-70
2022/06/13 13:43:06;;;;;;;;;;;28.00;38.40;;;;;;4894314;29;20324;-69
2022/06/13 13:45:37;;;;;;;;;;;28.00;37.40;;;;;;4900990;29;19922;-67
2022/06/13 13:48:06;;;;;;;;;;;28.10;38.10;;;;;;4898699;29;19912;-70
2022/06/13 13:50:34;;;;;;;;;;;28.10;37.70;;;;;;4895679;29;19959;-67
2022/06/13 13:53:03;;;;;;;;;;;28.10;37.10;;;;;;4890731;29;19926;-67
2022/06/13 13:55:36;;;;;;;;;;;28.10;37.30;;;;;;4891704;29;20014;-66
2022/06/13 13:58:10;;;;;;;;;;;28.10;37.20;;;;;;4892888;29;19912;-70
2022/06/13 14:00:42;;;;;;;;;;;28.10;36.90;;;;;;4898149;29;20340;-67
2022/06/13 14:03:25;;;;;;;;;;;28.10;36.70;;;;;;4901808;29;19943;-66
2022/06/13 14:06:00;;;;;;;;;;;28.20;35.90;;;;;;4901505;29;20078;-64
2022/06/13 14:08:30;;;;;;;;;;;28.20;36.20;;;;;;4901527;29;19912;-67
2022/06/13 14:10:59;;;;;;;;;;;28.20;36.50;;;;;;4902113;29;19911;-66
2022/06/13 14:13:35;;;;;;;;;;;28.20;36.10;;;;;;4901460;29;19919;-66
2022/06/13 14:16:16;;;;;;;;;;;28.20;36.10;;;;;;4901086;29;19967;-65
2022/06/13 14:18:44;;;;;;;;;;;28.20;36.30;;;;;;4896185;29;19916;-67
2022/06/13 14:21:16;;;;;;;;;;;28.20;36.90;;;;;;4882827;29;20060;-64
2022/06/13 14:23:46;;;;;;;;;;;28.20;36.70;;;;;;4893055;29;19912;-66
2022/06/13 14:26:38;;;;;;;;;;;28.20;37.40;;;;;;4890328;29;19920;-69
2022/06/13 14:29:08;;;;;;;;;;;28.30;36.90;;;;;;4883254;29;19998;-66
2022/06/13 14:31:54;;;;;;;;;;;28.20;36.70;;;;;;4890506;29;20045;-70
2022/06/13 14:37:23;;;;;;;;;;;28.30;37.40;;;;;;4892275;29;19967;-66
2022/06/13 14:39:54;;;;;;;;;;;28.30;37.20;;;;;;4891887;29;19912;-63
2022/06/13 14:42:31;;;;;;;;;;;28.30;36.90;;;;;;4892374;29;19967;-66
2022/06/13 14:45:05;;;;;;;;;;;28.30;37.40;;;;;;4891829;29;19950;-66
2022/06/13 14:47:50;;;;;;;;;;;28.30;37.30;;;;;;4890016;29;19915;-66
2022/06/13 14:50:34;;;;;;;;;;;28.30;37.10;;;;;;4888049;29;19971;-64
2022/06/13 14:53:19;;;;;;;;;;;28.30;36.20;;;;;;4890431;29;19935;-64
2022/06/13 14:56:05;;;;;;;;;;;28.40;36.60;;;;;;4890038;29;20292;-66
2022/06/13 14:58:46;;;;;;;;;;;28.30;36.30;;;;;;4891690;29;20026;-67
2022/06/13 15:01:29;;;;;;;;;;;28.40;37.10;;;;;;4891779;29;19927;-65
2022/06/13 15:04:03;;;;;;;;;;;28.40;36.90;;;;;;4889682;29;19919;-66
2022/06/13 15:06:49;;;;;;;;;;;28.40;36.50;;;;;;4890106;29;20372;-66